createdAt,value
2019-01-28T00:01:56.481Z,6.03
2019-01-28T00:04:25.514Z,5.53
2019-01-28T00:06:54.509Z,8.37
2019-01-28T00:09:23.541Z,5.90
2019-01-28T00:11:52.602Z,4.77
2019-01-28T00:14:22.038Z,5.90
2019-01-28T00:16:51.083Z,4.77
2019-01-28T00:19:20.084Z,4.30
2019-01-28T00:21:49.072Z,4.83
2019-01-28T00:24:18.764Z,4.77
2019-01-28T00:26:47.806Z,7.00
2019-01-28T00:29:16.799Z,4.30
2019-01-28T00:31:45.833Z,4.70
2019-01-28T00:34:14.872Z,6.27
2019-01-28T00:36:43.860Z,4.80
2019-01-28T00:39:12.848Z,4.40
2019-01-28T00:41:41.877Z,3.93
2019-01-28T00:44:12.245Z,3.40
2019-01-28T00:46:41.275Z,4.00
2019-01-28T00:49:10.347Z,3.43
2019-01-28T00:51:39.346Z,5.00
2019-01-28T00:54:08.364Z,3.73
2019-01-28T00:56:37.338Z,3.27
2019-01-28T00:59:06.330Z,3.37
2019-01-28T01:01:35.322Z,3.20
2019-01-28T01:04:04.487Z,3.63
2019-01-28T01:06:33.489Z,3.37
2019-01-28T01:09:02.551Z,3.80
2019-01-28T01:11:31.539Z,3.17
2019-01-28T01:14:00.611Z,3.33
2019-01-28T01:16:29.665Z,3.77
2019-01-28T01:18:58.743Z,3.43
2019-01-28T01:21:27.819Z,3.57
2019-01-28T01:23:56.824Z,2.67
2019-01-28T01:26:25.852Z,4.40
2019-01-28T01:28:54.902Z,5.47
2019-01-28T01:31:23.907Z,4.17
2019-01-28T01:33:53.038Z,3.00
2019-01-28T01:36:22.065Z,2.77
2019-01-28T01:38:51.167Z,4.43
2019-01-28T01:41:20.172Z,3.43
2019-01-28T01:43:49.164Z,2.77
2019-01-28T01:46:18.136Z,2.97
2019-01-28T01:48:47.165Z,3.77
2019-01-28T01:51:16.194Z,3.30
2019-01-28T01:53:45.196Z,2.83
2019-01-28T01:56:14.150Z,3.40
2019-01-28T01:58:45.539Z,3.20
2019-01-28T02:01:14.623Z,2.60
2019-01-28T02:03:43.616Z,3.47
2019-01-28T02:06:12.688Z,3.10
2019-01-28T02:08:41.699Z,3.57
2019-01-28T02:11:10.738Z,3.13
2019-01-28T02:13:39.732Z,2.90
2019-01-28T02:16:08.706Z,3.27
2019-01-28T02:18:37.774Z,2.87
2019-01-28T02:21:06.788Z,3.40
2019-01-28T02:23:35.867Z,3.03
2019-01-28T02:26:04.879Z,2.60
2019-01-28T02:28:33.859Z,2.83
2019-01-28T02:31:02.855Z,2.60
2019-01-28T02:33:31.924Z,2.57
2019-01-28T02:36:00.946Z,2.90
2019-01-28T02:38:30.018Z,3.60
2019-01-28T02:40:59.083Z,2.70
2019-01-28T02:43:28.224Z,3.00
2019-01-28T02:45:57.275Z,3.87
2019-01-28T02:48:26.269Z,3.43
2019-01-28T02:50:55.298Z,2.60
2019-01-28T02:53:24.299Z,2.40
2019-01-28T02:55:53.346Z,3.10
2019-01-28T02:58:22.323Z,2.90
2019-01-28T03:00:51.331Z,2.40
2019-01-28T03:03:20.327Z,2.80
2019-01-28T03:05:49.311Z,2.33
2019-01-28T03:08:18.411Z,2.33
2019-01-28T03:10:48.358Z,2.10
2019-01-28T03:13:17.384Z,2.50
2019-01-28T03:15:46.400Z,2.87
2019-01-28T03:18:15.528Z,4.30
2019-01-28T03:20:44.651Z,3.00
2019-01-28T03:23:13.784Z,2.10
2019-01-28T03:25:42.743Z,2.57
2019-01-28T03:28:11.817Z,3.37
2019-01-28T03:30:40.898Z,2.10
2019-01-28T03:33:09.881Z,2.53
2019-01-28T03:35:38.913Z,2.53
2019-01-28T03:38:07.903Z,2.40
2019-01-28T03:40:36.939Z,2.93
2019-01-28T03:43:06.042Z,2.30
2019-01-28T03:45:35.120Z,2.07
2019-01-28T03:48:04.110Z,2.23
2019-01-28T03:50:33.110Z,1.97
2019-01-28T03:53:02.163Z,3.03
2019-01-28T03:55:31.168Z,2.07
2019-01-28T03:58:00.215Z,2.63
2019-01-28T04:00:29.217Z,2.00
2019-01-28T04:02:58.195Z,2.30
2019-01-28T04:05:27.196Z,2.50
2019-01-28T04:07:56.255Z,2.07
2019-01-28T04:10:27.451Z,1.90
2019-01-28T04:12:56.473Z,2.27
2019-01-28T04:15:26.071Z,2.00
2019-01-28T04:17:55.109Z,2.27
2019-01-28T04:20:25.995Z,2.23
2019-01-28T04:22:55.233Z,2.57
2019-01-28T04:25:24.348Z,2.70
2019-01-28T04:27:53.335Z,1.67
2019-01-28T04:30:23.140Z,2.33
2019-01-28T04:32:52.183Z,1.87
2019-01-28T04:35:21.445Z,1.93
2019-01-28T04:37:50.439Z,2.00
2019-01-28T04:40:19.485Z,2.27
2019-01-28T04:42:49.750Z,2.33
2019-01-28T04:45:18.808Z,2.00
2019-01-28T04:47:47.934Z,1.73
2019-01-28T04:50:17.712Z,1.90
2019-01-28T04:52:46.785Z,1.90
2019-01-28T04:55:17.147Z,1.70
2019-01-28T04:57:47.989Z,1.70
2019-01-28T05:00:18.731Z,1.53
2019-01-28T05:02:47.802Z,1.93
2019-01-28T05:05:23.061Z,1.93
2019-01-28T05:07:52.190Z,1.83
2019-01-28T05:10:21.533Z,2.23
2019-01-28T05:12:50.581Z,1.50
2019-01-28T05:15:19.699Z,2.47
2019-01-28T05:17:48.685Z,1.80
2019-01-28T05:20:18.602Z,1.60
2019-01-28T05:22:47.718Z,1.57
2019-01-28T05:25:16.809Z,1.70
2019-01-28T05:27:46.046Z,2.77
2019-01-28T05:30:16.332Z,1.77
2019-01-28T05:32:45.302Z,1.50
2019-01-28T05:35:14.835Z,1.80
2019-01-28T05:37:43.827Z,1.60
2019-01-28T05:40:14.293Z,2.20
2019-01-28T05:42:43.281Z,1.70
2019-01-28T05:45:12.780Z,1.80
2019-01-28T05:47:41.743Z,1.70
2019-01-28T05:50:10.867Z,1.90
2019-01-28T05:52:39.844Z,1.80
2019-01-28T05:55:09.359Z,2.13
2019-01-28T05:57:38.398Z,1.40
2019-01-28T06:00:08.912Z,1.70
2019-01-28T06:02:37.891Z,1.80
2019-01-28T06:05:07.152Z,1.90
2019-01-28T06:07:36.154Z,1.50
2019-01-28T06:10:05.646Z,1.80
2019-01-28T06:12:34.750Z,1.67
2019-01-28T06:15:04.600Z,1.77
2019-01-28T06:17:38.851Z,1.77
2019-01-28T06:20:05.155Z,1.70
2019-01-28T06:22:34.130Z,2.00
2019-01-28T06:25:03.137Z,1.73
2019-01-28T06:27:32.105Z,1.87
2019-01-28T06:30:01.129Z,2.03
2019-01-28T06:32:30.205Z,1.70
2019-01-28T06:34:59.344Z,1.80
2019-01-28T06:37:28.327Z,1.90
2019-01-28T06:39:57.329Z,1.90
2019-01-28T06:42:26.320Z,2.00
2019-01-28T06:44:55.283Z,1.80
2019-01-28T06:47:24.298Z,1.80
2019-01-28T06:49:53.351Z,2.10
2019-01-28T06:52:22.338Z,2.17
2019-01-28T06:54:51.302Z,2.30
2019-01-28T06:57:20.369Z,2.00
2019-01-28T06:59:49.326Z,1.80
2019-01-28T07:02:18.330Z,2.07
2019-01-28T07:04:47.339Z,1.90
2019-01-28T07:07:16.332Z,2.03
2019-01-28T07:09:45.308Z,2.13
2019-01-28T07:12:14.310Z,1.90
2019-01-28T07:14:43.284Z,2.33
2019-01-28T07:17:12.265Z,2.40
2019-01-28T07:19:41.243Z,2.27
2019-01-28T07:22:10.270Z,2.10
2019-01-28T07:24:39.294Z,1.70
2019-01-28T07:27:08.374Z,2.13
2019-01-28T07:29:37.397Z,1.97
2019-01-28T07:32:06.396Z,2.17
2019-01-28T07:34:35.364Z,2.13
2019-01-28T07:37:04.353Z,2.07
2019-01-28T07:39:33.310Z,2.10
2019-01-28T07:42:02.323Z,2.10
2019-01-28T07:44:31.359Z,2.00
2019-01-28T07:47:00.387Z,2.40
2019-01-28T07:49:29.476Z,2.30
2019-01-28T07:51:58.476Z,2.10
2019-01-28T07:54:27.455Z,2.37
2019-01-28T07:56:56.551Z,2.60
2019-01-28T07:59:25.548Z,2.40
2019-01-28T08:01:54.531Z,2.27
2019-01-28T08:04:23.503Z,2.43
2019-01-28T08:06:59.333Z,2.17
2019-01-28T08:09:23.165Z,4.00
2019-01-28T08:11:52.162Z,2.90
2019-01-28T08:14:21.138Z,2.67
2019-01-28T08:16:50.128Z,2.43
2019-01-28T08:19:19.091Z,2.30
2019-01-28T08:21:48.090Z,2.30
2019-01-28T08:24:17.063Z,2.97
2019-01-28T08:26:46.142Z,2.73
2019-01-28T08:29:15.116Z,3.70
2019-01-28T08:31:44.113Z,2.77
2019-01-28T08:34:13.086Z,3.20
2019-01-28T08:36:42.076Z,2.87
2019-01-28T08:39:11.097Z,2.83
2019-01-28T08:41:40.105Z,3.00
2019-01-28T08:44:09.187Z,2.57
2019-01-28T08:46:38.245Z,2.50
2019-01-28T08:49:07.220Z,2.90
2019-01-28T08:51:36.241Z,2.87
2019-01-28T08:54:05.265Z,2.50
2019-01-28T08:56:34.269Z,2.80
2019-01-28T08:59:03.506Z,2.97
2019-01-28T09:01:32.519Z,2.20
2019-01-28T09:04:01.509Z,2.50
2019-01-28T09:06:30.523Z,3.08
2019-01-28T09:08:59.498Z,2.83
2019-01-28T09:11:28.559Z,2.53
2019-01-28T09:13:57.535Z,2.97
2019-01-28T09:16:26.532Z,2.60
2019-01-28T09:18:55.501Z,3.10
2019-01-28T09:21:24.520Z,2.70
2019-01-28T09:23:53.539Z,2.63
2019-01-28T09:26:22.543Z,2.70
2019-01-28T09:28:51.510Z,2.83
2019-01-28T09:31:20.519Z,2.90
2019-01-28T09:33:49.536Z,2.43
2019-01-28T09:36:18.586Z,2.90
2019-01-28T09:38:47.548Z,2.43
2019-01-28T09:41:16.527Z,2.17
2019-01-28T09:43:45.519Z,2.73
2019-01-28T09:46:14.583Z,2.33
2019-01-28T09:48:43.587Z,1.93
2019-01-28T09:51:12.616Z,2.07
2019-01-28T09:53:41.571Z,2.33
2019-01-28T09:56:10.596Z,1.70
2019-01-28T09:58:39.596Z,2.00
2019-01-28T10:01:08.575Z,2.70
2019-01-28T10:03:37.572Z,2.30
2019-01-28T10:06:06.568Z,2.40
2019-01-28T10:08:35.547Z,2.60
2019-01-28T10:11:04.546Z,2.67
2019-01-28T10:13:33.544Z,2.00
2019-01-28T10:16:02.623Z,2.27
2019-01-28T10:18:31.679Z,2.50
2019-01-28T10:21:00.657Z,2.50
2019-01-28T10:23:29.641Z,1.80
2019-01-28T10:25:58.723Z,2.43
2019-01-28T10:28:27.685Z,2.70
2019-01-28T10:30:56.778Z,2.70
2019-01-28T10:33:25.773Z,2.60
2019-01-28T10:35:54.815Z,2.20
2019-01-28T10:38:23.901Z,2.50
2019-01-28T10:40:52.877Z,2.17
2019-01-28T10:43:21.891Z,2.10
2019-01-28T10:45:50.887Z,1.90
2019-01-28T10:48:19.994Z,2.40
2019-01-28T10:50:48.954Z,2.40
2019-01-28T10:53:18.051Z,2.23
2019-01-28T10:55:47.026Z,2.30
2019-01-28T10:58:16.120Z,2.07
2019-01-28T11:00:46.448Z,2.43
2019-01-28T11:03:16.860Z,2.23
2019-01-28T11:05:45.859Z,2.43
2019-01-28T11:08:14.828Z,2.40
2019-01-28T11:10:43.818Z,2.30
2019-01-28T11:13:12.824Z,2.53
2019-01-28T11:15:41.894Z,2.80
2019-01-28T11:18:12.660Z,2.90
2019-01-28T11:20:41.643Z,2.50
2019-01-28T11:23:10.881Z,2.20
2019-01-28T11:25:39.954Z,2.30
2019-01-28T11:28:09.134Z,1.70
2019-01-28T11:30:47.748Z,1.90
2019-01-28T11:33:16.896Z,2.10
2019-01-28T11:35:46.131Z,2.23
2019-01-28T11:38:15.806Z,2.00
2019-01-28T11:40:44.873Z,2.00
2019-01-28T11:43:13.867Z,2.30
2019-01-28T11:45:44.416Z,2.30
2019-01-28T11:48:13.565Z,2.20
2019-01-28T11:50:42.545Z,2.07
2019-01-28T11:53:11.564Z,2.17
2019-01-28T11:55:40.544Z,2.50
2019-01-28T11:58:09.659Z,2.57
2019-01-28T12:00:45.089Z,2.13
2019-01-28T12:03:14.137Z,2.07
2019-01-28T12:05:43.107Z,2.30
2019-01-28T12:08:12.120Z,2.20
2019-01-28T12:10:41.120Z,1.90
2019-01-28T12:13:10.186Z,1.97
2019-01-28T12:15:39.155Z,2.10
2019-01-28T12:18:08.269Z,2.33
2019-01-28T12:20:37.247Z,2.70
2019-01-28T12:23:06.255Z,2.20
2019-01-28T12:25:35.227Z,2.43
2019-01-28T12:28:04.537Z,2.83
2019-01-28T12:30:33.871Z,2.27
2019-01-28T12:33:02.865Z,2.43
2019-01-28T12:35:31.839Z,3.00
2019-01-28T12:38:00.811Z,3.27
2019-01-28T12:40:29.807Z,2.07
2019-01-28T12:42:58.792Z,2.20
2019-01-28T12:45:27.802Z,2.23
2019-01-28T12:47:56.878Z,2.53
2019-01-28T12:50:26.449Z,2.23
2019-01-28T12:52:55.610Z,2.50
2019-01-28T12:55:24.695Z,2.77
2019-01-28T12:57:53.774Z,2.40
2019-01-28T13:00:26.257Z,2.23
2019-01-28T13:02:55.240Z,2.23
2019-01-28T13:05:24.357Z,2.33
2019-01-28T13:07:53.407Z,2.33
2019-01-28T13:10:23.034Z,2.53
2019-01-28T13:12:52.013Z,1.70
2019-01-28T13:15:21.994Z,2.10
2019-01-28T13:17:51.286Z,2.43
2019-01-28T13:20:20.286Z,2.40
2019-01-28T13:22:49.280Z,2.30
2019-01-28T13:25:18.480Z,3.08
2019-01-28T13:27:47.467Z,2.93
2019-01-28T13:30:17.689Z,2.20
2019-01-28T13:32:46.768Z,1.97
2019-01-28T13:35:15.802Z,2.33
2019-01-28T13:37:44.847Z,2.10
2019-01-28T13:40:15.380Z,2.17
2019-01-28T13:42:44.459Z,2.20
2019-01-28T13:45:14.172Z,3.20
2019-01-28T13:47:43.260Z,4.00
2019-01-28T13:50:13.414Z,3.47
2019-01-28T13:52:42.477Z,3.83
2019-01-28T13:55:11.471Z,3.20
2019-01-28T13:57:40.600Z,2.93
2019-01-28T14:00:12.794Z,3.93
2019-01-28T14:02:42.072Z,4.60
2019-01-28T14:05:11.175Z,3.60
2019-01-28T14:07:40.181Z,4.03
2019-01-28T14:10:09.846Z,5.23
2019-01-28T14:12:38.928Z,6.20
2019-01-28T14:15:09.418Z,4.80
2019-01-28T14:17:38.461Z,4.90
2019-01-28T14:20:09.071Z,4.83
2019-01-28T14:22:38.070Z,4.77
2019-01-28T14:25:07.643Z,5.70
2019-01-28T14:27:36.648Z,5.53
2019-01-28T14:30:06.865Z,5.07
2019-01-28T14:32:35.894Z,3.53
2019-01-28T14:35:05.149Z,3.10
2019-01-28T14:37:34.133Z,3.30
2019-01-28T14:40:03.493Z,3.30
2019-01-28T14:42:34.334Z,4.07
2019-01-28T14:45:05.192Z,3.97
2019-01-28T14:47:34.452Z,4.53
2019-01-28T14:50:04.432Z,5.03
2019-01-28T14:52:33.516Z,3.80
2019-01-28T14:55:02.584Z,4.83
2019-01-28T14:57:31.551Z,5.00
2019-01-28T15:00:00.543Z,4.37
2019-01-28T15:02:29.536Z,4.00
2019-01-28T15:04:58.567Z,4.70
2019-01-28T15:07:27.560Z,3.50
2019-01-28T15:09:56.587Z,3.97
2019-01-28T15:12:25.571Z,3.57
2019-01-28T15:14:54.570Z,3.93
2019-01-28T15:17:23.632Z,4.80
2019-01-28T15:19:52.679Z,8.23
2019-01-28T15:22:21.828Z,6.90
2019-01-28T15:24:50.786Z,4.53
2019-01-28T15:27:19.789Z,3.80
2019-01-28T15:29:48.758Z,5.30
2019-01-28T15:32:17.832Z,5.50
2019-01-28T15:34:46.947Z,3.90
2019-01-28T15:37:15.986Z,6.20
2019-01-28T15:39:44.971Z,6.70
2019-01-28T15:42:13.971Z,6.80
2019-01-28T15:44:43.171Z,5.07
2019-01-28T15:47:12.166Z,4.63
2019-01-28T15:49:41.166Z,4.20
2019-01-28T15:52:10.179Z,4.47
2019-01-28T15:54:39.325Z,10.03
2019-01-28T15:57:08.435Z,5.90
2019-01-28T15:59:37.423Z,6.60
2019-01-28T16:02:06.863Z,8.07
2019-01-28T16:04:35.951Z,6.73
2019-01-28T16:07:05.091Z,7.43
2019-01-28T16:09:34.083Z,9.40
2019-01-28T16:12:03.101Z,6.47
2019-01-28T16:14:32.092Z,16.50
2019-01-28T16:17:01.137Z,5.47
2019-01-28T16:19:30.159Z,4.03
2019-01-28T16:21:59.163Z,4.03
2019-01-28T16:24:28.143Z,5.83
2019-01-28T16:26:58.223Z,9.13
2019-01-28T16:29:30.222Z,7.80
2019-01-28T16:31:59.241Z,6.30
2019-01-28T16:34:28.295Z,6.50
2019-01-28T16:36:57.501Z,6.20
2019-01-28T16:39:27.601Z,6.70
2019-01-28T16:41:56.641Z,5.37
2019-01-28T16:44:25.701Z,4.27
2019-01-28T16:46:54.695Z,5.43
2019-01-28T16:49:23.678Z,4.62
2019-01-28T16:51:52.706Z,4.00
2019-01-28T16:54:21.720Z,3.73
2019-01-28T16:56:54.575Z,5.67
2019-01-28T16:59:23.584Z,4.23
2019-01-28T17:01:52.639Z,4.10
2019-01-28T17:04:21.631Z,22.13
2019-01-28T17:06:50.651Z,27.53
2019-01-28T17:09:20.061Z,13.50
2019-01-28T17:11:49.139Z,5.50
2019-01-28T17:14:18.122Z,4.13
2019-01-28T17:16:47.118Z,5.03
2019-01-28T17:19:16.185Z,5.40
2019-01-28T17:21:45.273Z,5.97
2019-01-28T17:24:15.328Z,6.63
2019-01-28T17:26:44.387Z,7.77
2019-01-28T17:29:13.387Z,7.70
2019-01-28T17:31:42.399Z,7.13
2019-01-28T17:34:11.495Z,7.80
2019-01-28T17:36:40.540Z,6.83
2019-01-28T17:39:09.539Z,9.33
2019-01-28T17:41:39.544Z,10.53
2019-01-28T17:44:08.617Z,10.17
2019-01-28T17:46:37.594Z,5.77
2019-01-28T17:49:06.607Z,7.83
2019-01-28T17:51:35.606Z,7.93
2019-01-28T17:54:04.647Z,8.40
2019-01-28T17:56:33.995Z,6.63
2019-01-28T17:59:05.038Z,5.37
2019-01-28T18:01:33.811Z,4.53
2019-01-28T18:04:02.940Z,4.10
2019-01-28T18:06:31.993Z,5.10
2019-01-28T18:09:01.058Z,4.27
2019-01-28T18:11:30.042Z,7.40
2019-01-28T18:13:59.039Z,3.90
2019-01-28T18:16:28.111Z,6.77
2019-01-28T18:18:57.098Z,4.90
2019-01-28T18:21:26.093Z,5.10
2019-01-28T18:23:55.166Z,4.50
2019-01-28T18:26:24.175Z,3.90
2019-01-28T18:28:53.191Z,4.17
2019-01-28T18:31:22.230Z,4.33
2019-01-28T18:33:51.399Z,4.73
2019-01-28T18:36:20.508Z,5.17
2019-01-28T18:38:49.648Z,6.00
2019-01-28T18:41:18.698Z,5.90
2019-01-28T18:43:47.803Z,6.57
2019-01-28T18:46:16.801Z,7.20
2019-01-28T18:48:46.002Z,11.50
2019-01-28T18:51:15.199Z,5.43
2019-01-28T18:53:44.318Z,6.17
2019-01-28T18:56:13.422Z,6.80
2019-01-28T18:58:42.464Z,4.60
2019-01-28T19:01:12.226Z,6.37
2019-01-28T19:03:41.374Z,5.00
2019-01-28T19:06:47.498Z,4.13
2019-01-28T19:09:27.186Z,4.27
2019-01-28T19:12:18.193Z,4.93
2019-01-28T19:14:56.196Z,7.37
2019-01-28T19:17:47.089Z,5.30
2019-01-28T19:20:29.840Z,5.50
2019-01-28T19:22:58.819Z,6.10
2019-01-28T19:25:27.859Z,6.83
2019-01-28T19:27:56.937Z,5.93
2019-01-28T19:30:28.106Z,5.93
2019-01-28T19:32:57.222Z,7.13
2019-01-28T19:35:26.298Z,7.53
2019-01-28T19:37:55.411Z,5.77
2019-01-28T19:40:24.445Z,5.97
2019-01-28T19:42:53.547Z,4.80
2019-01-28T19:45:22.600Z,5.53
2019-01-28T19:47:51.627Z,5.70
2019-01-28T19:50:21.703Z,5.20
2019-01-28T19:52:50.678Z,6.53
2019-01-28T19:55:19.967Z,6.27
2019-01-28T19:57:48.951Z,6.17
2019-01-28T20:00:22.347Z,6.13
2019-01-28T20:02:51.370Z,7.17
2019-01-28T20:05:20.433Z,5.30
2019-01-28T20:07:49.567Z,6.80
2019-01-28T20:10:18.591Z,6.13
2019-01-28T20:12:47.706Z,5.67
2019-01-28T20:15:17.509Z,4.77
2019-01-28T20:17:46.684Z,5.93
2019-01-28T20:20:16.213Z,6.90
2019-01-28T20:22:45.217Z,6.87
2019-01-28T20:25:14.860Z,9.57
2019-01-28T20:27:43.861Z,11.87
2019-01-28T20:30:17.140Z,9.60
2019-01-28T20:32:46.136Z,8.40
2019-01-28T20:35:15.260Z,9.17
2019-01-28T20:37:44.325Z,6.70
2019-01-28T20:40:13.695Z,6.33
2019-01-28T20:42:42.678Z,6.00
2019-01-28T20:45:13.357Z,6.20
2019-01-28T20:47:42.420Z,5.60
2019-01-28T20:50:18.304Z,7.13
2019-01-28T20:52:47.291Z,6.20
2019-01-28T20:55:16.623Z,6.10
2019-01-28T20:57:45.719Z,5.50
2019-01-28T21:00:18.365Z,6.90
2019-01-28T21:02:47.498Z,5.90
2019-01-28T21:05:17.349Z,6.40
2019-01-28T21:07:46.501Z,6.00
2019-01-28T21:10:16.305Z,5.20
2019-01-28T21:12:51.168Z,4.43
2019-01-28T21:15:20.177Z,4.77
2019-01-28T21:17:49.208Z,4.20
2019-01-28T21:20:19.747Z,3.47
2019-01-28T21:22:48.782Z,3.90
2019-01-28T21:25:20.240Z,4.50
2019-01-28T21:27:49.267Z,4.60
2019-01-28T21:30:28.770Z,3.80
2019-01-28T21:32:57.780Z,4.60
2019-01-28T21:35:54.991Z,6.17
2019-01-28T21:38:31.595Z,5.17
2019-01-28T21:41:00.825Z,5.47
2019-01-28T21:43:29.815Z,5.37
2019-01-28T21:46:01.208Z,5.20
2019-01-28T21:48:29.589Z,5.13
2019-01-28T21:50:58.607Z,4.10
2019-01-28T21:53:27.586Z,4.10
2019-01-28T21:55:56.890Z,4.20
2019-01-28T21:58:25.869Z,3.67
2019-01-28T22:00:54.953Z,3.97
2019-01-28T22:03:25.042Z,6.80
2019-01-28T22:05:54.320Z,4.40
2019-01-28T22:08:23.397Z,4.50
2019-01-28T22:10:52.474Z,4.30
2019-01-28T22:13:21.458Z,5.30
2019-01-28T22:15:50.539Z,6.13
2019-01-28T22:18:20.869Z,6.70
2019-01-28T22:20:49.867Z,4.97
2019-01-28T22:23:18.851Z,5.50
2019-01-28T22:25:47.852Z,5.80
2019-01-28T22:28:16.938Z,5.73
2019-01-28T22:30:45.939Z,5.80
2019-01-28T22:33:14.943Z,5.83
2019-01-28T22:35:43.932Z,4.20
2019-01-28T22:38:12.916Z,4.73
2019-01-28T22:40:42.048Z,4.60
2019-01-28T22:43:11.108Z,4.23
2019-01-28T22:45:40.132Z,4.03
2019-01-28T22:48:09.208Z,5.10
2019-01-28T22:50:38.207Z,5.97
2019-01-28T22:53:07.237Z,7.93
2019-01-28T22:55:36.661Z,7.47
2019-01-28T22:58:05.847Z,7.17
2019-01-28T23:00:50.479Z,8.03
2019-01-28T23:03:20.313Z,5.30
2019-01-28T23:05:49.379Z,4.60
2019-01-28T23:08:18.374Z,5.83
2019-01-28T23:10:47.451Z,6.17
2019-01-28T23:13:16.531Z,5.70
2019-01-28T23:15:45.539Z,5.17
2019-01-28T23:18:14.587Z,5.73
2019-01-28T23:20:43.587Z,4.67
2019-01-28T23:23:12.620Z,5.37
2019-01-28T23:25:41.676Z,5.80
2019-01-28T23:28:10.668Z,5.57
2019-01-28T23:30:39.684Z,5.27
2019-01-28T23:33:08.762Z,4.23
2019-01-28T23:35:38.815Z,5.03
2019-01-28T23:38:07.866Z,4.07
2019-01-28T23:40:36.838Z,4.50
2019-01-28T23:43:06.282Z,4.50
2019-01-28T23:45:35.351Z,4.20
2019-01-28T23:48:04.381Z,4.30
2019-01-28T23:50:36.217Z,3.87
2019-01-28T23:53:05.457Z,3.73
2019-01-28T23:55:34.481Z,3.70
2019-01-28T23:58:11.097Z,3.80
